Time;durP1;ratioP1;P1;durP2;ratioP2;P2;SDS_P1;SDS_P2;PMS_P1;PMS_P2;Temp;Humidity;BMP_temperature;BMP_pressure;BME280_temperature;BME280_humidity;BME280_pressure;Samples;Min_cycle;Max_cycle;Signal;HPM_P1;HPM_P2
2024/01/08 00:01:06;;;;;;;7.83;4.43;;;-0.70;78.20;;;;;;4803472;29;40174;-81
2024/01/08 00:22:43;;;;;;;8.87;4.63;;;-0.70;74.90;;;;;;6088955;23;20247;-81
2024/01/08 00:33:55;;;;;;;6.70;4.60;;;-0.70;75.40;;;;;;5008490;28;20034;-80
2024/01/08 00:37:42;;;;;;;;;;;;;;;;;;;;;
2024/01/08 00:41:06;;;;;;;8.80;5.00;;;-0.50;71.80;;;;;;4894101;28;38587;-81
2024/01/08 00:43:57;;;;;;;6.13;4.23;;;-0.70;66.30;;;;;;4890817;28;38649;-80
2024/01/08 00:47:33;;;;;;;7.03;4.00;;;-0.60;58.20;;;;;;4931482;28;39664;-80
2024/01/08 00:51:13;;;;;;;6.00;3.80;;;-0.60;48.30;;;;;;4860996;29;39856;-81
2024/01/08 00:57:40;;;;;;;6.37;3.70;;;-0.60;51.10;;;;;;4923472;28;39112;-81
2024/01/08 01:00:50;;;;;;;11.13;4.33;;;-0.60;47.50;;;;;;4975834;28;40298;-81
2024/01/08 01:03:40;;;;;;;6.43;3.90;;;-0.60;46.70;;;;;;4949279;28;49316;-82
2024/01/08 01:07:16;;;;;;;7.37;3.97;;;-0.50;48.20;;;;;;4944326;28;50340;-80
2024/01/08 01:10:22;;;;;;;5.50;3.67;;;-0.50;44.60;;;;;;4962260;28;38717;-82
2024/01/08 01:13:13;;;;;;;5.87;3.33;;;-0.60;30.00;;;;;;4963414;28;39901;-80
2024/01/08 01:16:29;;;;;;;6.07;3.77;;;-0.60;23.40;;;;;;4933985;28;48918;-81
2024/01/08 01:19:21;;;;;;;6.63;3.40;;;-0.60;14.10;;;;;;4921128;28;40041;-80
2024/01/08 01:22:50;;;;;;;6.80;3.43;;;-0.70;3.00;;;;;;4920121;28;50122;-80
2024/01/08 01:26:42;;;;;;;5.07;3.60;;;-0.70;2.00;;;;;;4949576;28;40158;-80
2024/01/08 01:29:44;;;;;;;6.30;3.50;;;-0.70;1.00;;;;;;4933484;28;38811;-80
2024/01/08 01:32:28;;;;;;;5.33;3.67;;;-0.70;5.30;;;;;;4907929;29;38888;-80
2024/01/08 01:35:12;;;;;;;5.63;3.97;;;-0.80;1.00;;;;;;4920828;29;38562;-81
2024/01/08 01:38:35;;;;;;;4.95;3.75;;;-0.80;1.00;;;;;;4845540;29;50344;-81
2024/01/08 01:41:58;;;;;;;5.50;3.57;;;-0.90;1.00;;;;;;4817300;29;49068;-80
2024/01/08 01:45:20;;;;;;;6.13;3.57;;;-0.90;1.00;;;;;;4813010;29;38630;-80
2024/01/08 01:48:27;;;;;;;7.25;4.20;;;-0.90;1.00;;;;;;4782161;29;49525;-80
2024/01/08 01:51:44;;;;;;;5.33;3.83;;;-0.90;1.00;;;;;;4807927;29;50309;-80
2024/01/08 01:54:39;;;;;;;5.73;4.17;;;-1.00;1.00;;;;;;4819808;29;50094;-79
2024/01/08 01:57:32;;;;;;;6.53;3.90;;;-1.10;1.00;;;;;;4818846;29;37773;-81
2024/01/08 02:03:06;;;;;;;7.33;3.97;;;-1.10;1.00;;;;;;5420618;23;20920;-79
2024/01/08 02:05:33;;;;;;;5.83;4.40;;;-1.10;1.00;;;;;;4999510;28;37826;-80
2024/01/08 02:07:59;;;;;;;4.87;3.87;;;-1.10;1.00;;;;;;4995778;28;36603;-81
2024/01/08 02:10:26;;;;;;;5.60;4.23;;;-1.20;1.00;;;;;;5011858;28;37289;-80
2024/01/08 02:12:52;;;;;;;10.37;4.13;;;-1.20;1.00;;;;;;5014376;28;40488;-81
2024/01/08 02:15:18;;;;;;;6.00;3.70;;;-1.20;1.00;;;;;;4988175;28;35981;-80
2024/01/08 02:17:45;;;;;;;6.90;4.43;;;-1.30;1.00;;;;;;5021787;28;37495;-80
2024/01/08 02:20:11;;;;;;;7.63;4.50;;;-1.30;1.00;;;;;;4999420;28;37291;-80
2024/01/08 02:22:41;;;;;;;6.13;4.63;;;-1.30;1.00;;;;;;5018838;28;39851;-81
2024/01/08 02:25:11;;;;;;;5.80;4.23;;;-1.40;1.00;;;;;;4990784;28;37639;-80
2024/01/08 02:27:37;;;;;;;6.97;4.33;;;-1.40;1.00;;;;;;5000676;28;37466;-81
2024/01/08 02:30:04;;;;;;;10.23;4.60;;;-1.40;1.00;;;;;;4997410;28;37680;-80
2024/01/08 02:32:33;;;;;;;6.67;4.20;;;-1.40;1.00;;;;;;4994260;28;38005;-81
2024/01/08 02:35:00;;;;;;;5.83;4.50;;;-1.40;1.00;;;;;;4996493;28;39886;-80
2024/01/08 02:37:32;;;;;;;9.17;4.60;;;-1.40;1.00;;;;;;5012939;28;37581;-80
2024/01/08 02:39:58;;;;;;;9.45;5.75;;;-1.50;1.00;;;;;;5001932;28;37999;-80
2024/01/08 02:42:31;;;;;;;7.53;4.87;;;-1.50;1.00;;;;;;4997565;28;37491;-80
2024/01/08 02:45:01;;;;;;;6.43;4.70;;;-1.50;1.00;;;;;;5006324;28;37276;-81
2024/01/08 02:47:27;;;;;;;7.80;5.30;;;-1.60;1.00;;;;;;5014737;28;37485;-81
2024/01/08 02:49:53;;;;;;;5.83;4.17;;;-1.60;1.00;;;;;;5000309;28;36529;-81
2024/01/08 02:52:20;;;;;;;7.33;5.20;;;-1.60;1.00;;;;;;5005349;28;39940;-80
2024/01/08 02:54:46;;;;;;;7.37;5.20;;;-1.60;1.00;;;;;;5017851;28;38831;-81
2024/01/08 02:57:12;;;;;;;7.40;4.97;;;-1.60;1.00;;;;;;4998589;28;38705;-81
2024/01/08 02:59:39;;;;;;;7.47;4.93;;;-1.70;1.00;;;;;;5001318;28;36646;-80
2024/01/08 03:02:05;;;;;;;9.40;4.57;;;-1.70;1.00;;;;;;4999911;28;38050;-81
2024/01/08 03:04:35;;;;;;;6.80;4.70;;;-1.70;1.00;;;;;;5024562;28;38094;-81
2024/01/08 03:07:02;;;;;;;7.40;4.73;;;-1.80;1.00;;;;;;5003287;28;37047;-81
2024/01/08 03:09:28;;;;;;;9.03;5.80;;;-1.80;1.00;;;;;;5020655;28;47331;-81
2024/01/08 03:11:54;;;;;;;7.00;4.93;;;-1.80;1.00;;;;;;5003542;28;38877;-80
2024/01/08 03:14:38;;;;;;;5.90;4.67;;;-1.80;1.00;;;;;;5004327;28;38790;-81
2024/01/08 03:17:04;;;;;;;8.47;5.33;;;-1.90;1.00;;;;;;5007309;28;37059;-80
2024/01/08 03:19:31;;;;;;;8.40;5.50;;;-1.90;1.00;;;;;;5019776;28;35990;-81
2024/01/08 03:22:01;;;;;;;9.03;5.47;;;-1.90;1.00;;;;;;5006085;28;39321;-81
2024/01/08 03:24:27;;;;;;;9.53;5.33;;;-1.90;1.00;;;;;;5015813;28;47494;-81
2024/01/08 03:26:53;;;;;;;6.57;4.57;;;-1.90;1.00;;;;;;5014060;28;36842;-81
2024/01/08 03:29:19;;;;;;;10.83;6.37;;;-1.90;1.00;;;;;;5008926;28;37243;-81
2024/01/08 03:31:46;;;;;;;7.07;4.57;;;-1.90;1.00;;;;;;5010882;28;38872;-81
2024/01/08 03:34:16;;;;;;;6.00;4.57;;;-2.00;1.00;;;;;;5013431;28;38202;-81
2024/01/08 03:36:49;;;;;;;8.00;4.67;;;-1.90;1.00;;;;;;5013526;28;38031;-82
2024/01/08 03:39:17;;;;;;;7.93;5.10;;;-1.90;1.00;;;;;;5013063;28;35719;-81
2024/01/08 03:41:44;;;;;;;12.37;4.63;;;-1.90;1.00;;;;;;5014709;28;37770;-80
2024/01/08 03:44:10;;;;;;;7.57;4.40;;;-1.90;1.00;;;;;;5007347;28;38539;-81
2024/01/08 03:46:38;;;;;;;6.63;4.60;;;-1.90;1.00;;;;;;5017775;28;36290;-81
2024/01/08 03:49:09;;;;;;;5.90;4.07;;;-1.80;1.00;;;;;;5020691;28;36987;-82
2024/01/08 03:51:36;;;;;;;7.77;4.30;;;-1.90;1.00;;;;;;4987663;28;39812;-81
2024/01/08 03:54:08;;;;;;;11.90;4.87;;;-1.90;1.00;;;;;;4994574;28;39729;-81
2024/01/08 03:56:36;;;;;;;7.47;5.03;;;-1.90;1.00;;;;;;5025631;28;38780;-82
2024/01/08 03:59:04;;;;;;;7.47;4.67;;;-1.90;1.00;;;;;;5013331;28;36393;-81
2024/01/08 04:01:31;;;;;;;8.00;4.73;;;-1.90;1.00;;;;;;5008868;28;38452;-81
2024/01/08 04:04:15;;;;;;;10.03;4.70;;;-1.90;1.00;;;;;;5023442;28;39050;-81
2024/01/08 04:06:52;;;;;;;9.23;5.07;;;-1.90;1.00;;;;;;4999470;28;48878;-81
2024/01/08 04:09:20;;;;;;;9.47;4.67;;;-1.90;1.00;;;;;;4994869;28;37155;-81
2024/01/08 04:11:59;;;;;;;8.73;5.07;;;-1.90;1.00;;;;;;5014091;28;39949;-81
2024/01/08 04:14:30;;;;;;;9.80;5.37;;;-2.00;1.00;;;;;;5005827;28;37120;-82
2024/01/08 04:17:04;;;;;;;7.07;4.70;;;-2.00;1.00;;;;;;5027565;28;38907;-81
2024/01/08 04:19:35;;;;;;;8.10;5.33;;;-2.00;1.00;;;;;;4984273;28;48105;-81
2024/01/08 04:22:15;;;;;;;7.33;5.00;;;-2.00;1.00;;;;;;5018498;28;39295;-81
2024/01/08 04:25:10;;;;;;;8.10;5.03;;;-2.00;1.00;;;;;;5009733;28;39891;-80
2024/01/08 04:27:55;;;;;;;16.00;6.30;;;-2.10;2.90;;;;;;4981914;28;49793;-82
2024/01/08 04:30:33;;;;;;;11.27;5.45;;;-2.10;4.30;;;;;;4969788;28;38545;-81
2024/01/08 04:34:05;;;;;;;11.68;5.55;;;-2.10;5.10;;;;;;5018898;28;38032;-82
2024/01/08 04:36:54;;;;;;;8.00;4.73;;;-2.10;4.80;;;;;;5248203;23;49623;-80
2024/01/08 04:39:28;;;;;;;9.93;5.63;;;-2.10;8.20;;;;;;4954767;28;38678;-81
2024/01/08 04:42:00;;;;;;;9.88;5.15;;;-2.10;9.30;;;;;;4953626;28;37359;-81
2024/01/08 04:44:53;;;;;;;7.22;5.07;;;-2.10;11.70;;;;;;4959991;28;40281;-81
2024/01/08 04:47:37;;;;;;;9.73;5.50;;;-2.10;11.50;;;;;;4977695;28;39841;-81
2024/01/08 04:50:11;;;;;;;8.57;5.73;;;-2.10;13.40;;;;;;4962546;28;38802;-81
2024/01/08 04:52:59;;;;;;;9.05;5.25;;;-2.10;15.50;;;;;;4962498;28;49128;-81
2024/01/08 04:55:59;;;;;;;8.00;6.03;;;-2.10;17.60;;;;;;4969439;28;38354;-81
2024/01/08 04:58:59;;;;;;;7.97;5.50;;;-2.10;18.40;;;;;;4952633;28;39270;-81
2024/01/08 05:01:41;;;;;;;10.00;6.10;;;-2.10;19.50;;;;;;4964562;28;37681;-80
2024/01/08 05:04:55;;;;;;;9.93;5.67;;;-2.00;21.20;;;;;;4967507;28;37414;-81
2024/01/08 05:08:02;;;;;;;10.45;6.60;;;-2.10;21.30;;;;;;4903025;28;39280;-82
2024/01/08 05:11:34;;;;;;;9.13;5.53;;;-2.20;24.50;;;;;;4899099;28;39984;-80
2024/01/08 05:14:18;;;;;;;9.60;5.30;;;-2.20;26.70;;;;;;4910146;28;48224;-81
2024/01/08 05:25:35;;;;;;;10.17;5.73;;;-2.20;34.30;;;;;;5103977;23;20041;-82
2024/01/08 05:28:56;;;;;;;9.27;5.47;;;-2.10;29.70;;;;;;5000214;28;37464;-82
2024/01/08 05:31:51;;;;;;;10.40;6.13;;;-2.10;29.20;;;;;;4978915;28;38913;-82
2024/01/08 05:35:05;;;;;;;11.43;5.77;;;-2.10;31.60;;;;;;4967384;28;39703;-82
2024/01/08 05:37:49;;;;;;;8.70;5.80;;;-2.10;32.30;;;;;;4958529;28;48448;-82
2024/01/08 05:40:55;;;;;;;13.37;6.03;;;-2.00;33.50;;;;;;4943323;28;37480;-81
2024/01/08 05:43:56;;;;;;;8.47;5.63;;;-2.00;33.00;;;;;;5015257;23;40445;-82
2024/01/08 05:48:58;;;;;;;10.63;5.50;;;-1.70;32.60;;;;;;5103945;23;20034;-82
2024/01/08 05:51:29;;;;;;;8.83;5.43;;;-1.60;30.00;;;;;;5009196;28;37223;-82
2024/01/08 05:53:58;;;;;;;7.63;5.37;;;-1.60;27.90;;;;;;5012832;28;38704;-81
2024/01/08 05:56:26;;;;;;;10.07;5.97;;;-1.50;28.90;;;;;;5013474;28;37543;-82
2024/01/08 05:58:53;;;;;;;11.27;6.00;;;-1.50;24.40;;;;;;5029586;23;38025;-82
2024/01/08 06:01:20;;;;;;;10.20;5.67;;;-1.30;25.30;;;;;;4990446;23;36905;-80
2024/01/08 06:03:46;;;;;;;10.90;6.10;;;-1.40;27.10;;;;;;4994482;28;40018;-79
2024/01/08 06:06:13;;;;;;;11.63;5.53;;;-1.30;27.50;;;;;;4994315;28;38132;-79
2024/01/08 06:08:40;;;;;;;9.97;6.33;;;-1.30;26.10;;;;;;4976173;28;36254;-80
2024/01/08 06:13:57;;;;;;;9.63;6.03;;;-1.20;31.30;;;;;;5595077;23;20043;-81
2024/01/08 06:16:41;;;;;;;8.57;5.87;;;-1.20;35.50;;;;;;4998930;28;39669;-80
2024/01/08 06:19:30;;;;;;;13.20;6.33;;;-1.20;35.50;;;;;;4991271;28;36692;-82
2024/01/08 06:22:17;;;;;;;12.70;7.20;;;-1.20;36.80;;;;;;4987463;28;35986;-83
2024/01/08 06:24:47;;;;;;;14.17;6.97;;;-1.10;41.40;;;;;;4929773;28;47224;-83
2024/01/08 06:27:17;;;;;;;9.80;6.10;;;-1.10;40.70;;;;;;4982358;28;37656;-82
2024/01/08 06:29:54;;;;;;;15.23;7.53;;;-1.10;41.10;;;;;;4983370;28;38020;-83
2024/01/08 06:32:57;;;;;;;12.73;7.10;;;-1.10;40.00;;;;;;4969331;28;36472;-85
2024/01/08 06:35:26;;;;;;;14.25;7.25;;;-1.10;44.70;;;;;;4985308;28;39549;-84
2024/01/08 06:40:46;;;;;;;11.47;6.30;;;-1.00;46.40;;;;;;4986585;28;20051;-81
2024/01/08 06:43:13;;;;;;;10.73;7.20;;;-1.00;48.00;;;;;;4980031;28;37501;-81
2024/01/08 06:45:41;;;;;;;13.60;7.13;;;-1.00;48.60;;;;;;4948044;28;39112;-81
2024/01/08 06:51:05;;;;;;;11.23;7.30;;;-0.90;52.10;;;;;;5685321;23;20039;-82
2024/01/08 06:57:24;;;;;;;13.77;6.80;;;-0.90;54.80;;;;;;4948206;28;49598;-82
2024/01/08 07:00:18;;;;;;;9.97;6.60;;;-0.90;58.80;;;;;;4966425;28;38995;-81
2024/01/08 07:02:52;;;;;;;15.13;7.93;;;-0.90;56.50;;;;;;4885431;28;48739;-83
2024/01/08 07:06:11;;;;;;;12.13;8.45;;;-0.90;59.80;;;;;;4951945;28;38516;-82
2024/01/08 07:09:13;;;;;;;14.57;7.83;;;-0.80;55.00;;;;;;4932967;28;48519;-81
2024/01/08 07:11:54;;;;;;;11.93;7.10;;;-0.80;56.20;;;;;;4831251;29;49556;-82
2024/01/08 07:15:14;;;;;;;13.47;7.97;;;-0.70;54.90;;;;;;4864855;29;37595;-83
2024/01/08 07:32:14;;;;;;;10.30;7.37;;;-0.60;52.50;;;;;;5506079;23;20053;-83
2024/01/08 07:37:31;;;;;;;13.40;7.93;;;-0.50;53.50;;;;;;3260072;23;20050;-83
2024/01/08 07:58:44;;;;;;;11.60;7.50;;;-0.40;40.70;;;;;;5735561;23;20038;-83
2024/01/08 09:03:41;;;;;;;7.57;4.80;;;0.20;1.00;;;;;;5684018;23;20055;-83
2024/01/08 09:32:12;;;;;;;6.27;3.97;;;0.30;1.00;;;;;;5780726;23;20051;-83
2024/01/08 09:42:28;;;;;;;4.67;3.20;;;0.40;1.00;;;;;;6038825;23;20024;-82
2024/01/08 10:00:33;;;;;;;6.47;3.73;;;0.40;1.00;;;;;;5671447;23;20039;-82
2024/01/08 10:05:36;;;;;;;6.33;3.73;;;0.50;1.00;;;;;;5724283;23;20201;-83
2024/01/08 10:13:23;;;;;;;7.53;4.13;;;0.40;1.00;;;;;;5873216;23;20057;-82
2024/01/08 10:16:36;;;;;;;7.30;3.83;;;0.30;1.00;;;;;;4960671;28;36733;-84
2024/01/08 10:37:44;;;;;;;6.00;3.73;;;0.40;1.00;;;;;;5653246;23;20048;-84
2024/01/08 10:45:27;;;;;;;7.73;4.27;;;0.30;1.00;;;;;;5531147;23;20039;-83
2024/01/08 10:48:36;;;;;;;;;;;;;;;;;;;;;
2024/01/08 10:51:23;;;;;;;7.37;4.53;;;0.30;1.00;;;;;;4951479;28;50131;-85
2024/01/08 10:57:02;;;;;;;5.32;3.65;;;0.40;1.00;;;;;;5361094;23;20034;-83
2024/01/08 10:59:31;;;;;;;6.13;4.45;;;0.40;1.00;;;;;;5003924;28;48563;-83
2024/01/08 11:02:14;;;;;;;4.67;3.53;;;0.40;1.00;;;;;;5002470;28;38373;-86
2024/01/08 11:05:21;;;;;;;6.05;4.68;;;0.50;1.00;;;;;;4950787;28;50350;-83
2024/01/08 11:08:19;;;;;;;5.57;3.93;;;0.50;1.00;;;;;;4888888;28;49984;-83
2024/01/08 11:11:18;;;;;;;6.30;4.07;;;0.60;1.00;;;;;;4947154;28;38355;-84
2024/01/08 11:14:18;;;;;;;5.93;4.20;;;0.50;1.00;;;;;;4924934;28;49828;-84
2024/01/08 11:17:17;;;;;;;6.50;3.90;;;0.40;1.00;;;;;;4909281;28;50007;-84
2024/01/08 11:36:48;;;;;;;9.65;4.47;;;0.50;1.00;;;;;;5765881;23;20058;-82
2024/01/08 11:58:12;;;;;;;6.40;4.30;;;0.60;1.00;;;;;;5981404;23;21221;-83
2024/01/08 18:03:16;;;;;;;5.87;3.40;;;-1.00;1.00;;;;;;4623676;23;20046;-82
2024/01/08 18:06:09;;;;;;;10.07;4.30;;;-1.00;1.00;;;;;;4887218;29;49530;-81
2024/01/08 18:09:30;;;;;;;6.40;3.87;;;-1.10;1.00;;;;;;4867974;29;49860;-81
2024/01/08 18:12:26;;;;;;;6.90;4.00;;;-1.10;1.00;;;;;;4844168;29;37352;-83
2024/01/08 18:15:45;;;;;;;6.47;3.93;;;-1.00;1.00;;;;;;4837438;29;48035;-82
2024/01/08 18:49:47;;;;;;;8.70;3.80;;;-1.20;1.00;;;;;;5420529;23;20037;-83
2024/01/08 18:52:36;;;;;;;6.80;4.57;;;-1.20;1.00;;;;;;4909832;29;39156;-83
2024/01/08 18:55:56;;;;;;;6.87;4.60;;;-1.20;1.00;;;;;;4871530;29;37770;-82
2024/01/08 18:59:06;;;;;;;7.03;3.87;;;-1.20;1.00;;;;;;4893941;29;48944;-83
2024/01/08 19:01:47;;;;;;;8.23;4.20;;;-1.20;1.00;;;;;;4875583;29;48921;-82
2024/01/08 19:04:34;;;;;;;8.57;3.73;;;-1.20;1.00;;;;;;4860544;29;36666;-81
2024/01/08 19:07:09;;;;;;;12.43;4.03;;;-1.20;1.00;;;;;;4906650;29;37656;-82
2024/01/08 19:09:44;;;;;;;7.10;4.00;;;-1.20;1.00;;;;;;4909040;28;40075;-81
2024/01/08 19:12:12;;;;;;;7.07;3.60;;;-1.20;1.00;;;;;;4882683;29;38607;-81
2024/01/08 19:14:41;;;;;;;7.70;4.30;;;-1.30;1.00;;;;;;4906561;29;37419;-81
2024/01/08 19:17:09;;;;;;;8.77;4.37;;;-1.30;1.00;;;;;;4903034;29;37609;-80
2024/01/08 19:19:46;;;;;;;8.17;4.03;;;-1.30;1.00;;;;;;4903941;29;39420;-80
2024/01/08 19:22:21;;;;;;;7.47;4.00;;;-1.30;1.00;;;;;;4907394;28;41027;-82
2024/01/08 19:24:52;;;;;;;;;;;-1.30;1.00;;;;;;4914972;29;39899;-80
2024/01/08 19:27:18;;;;;;;7.73;3.87;;;-1.30;1.00;;;;;;4905371;29;37778;-79
2024/01/08 19:29:45;;;;;;;6.97;4.27;;;-1.30;1.00;;;;;;4911181;29;37733;-80
2024/01/08 19:32:11;;;;;;;8.23;4.43;;;-1.30;1.00;;;;;;4913393;29;38718;-80
2024/01/08 19:34:46;;;;;;;6.77;3.50;;;-1.30;1.00;;;;;;4908043;29;37187;-80
2024/01/08 19:37:14;;;;;;;7.47;4.23;;;-1.30;1.00;;;;;;4912762;29;36657;-80
2024/01/08 19:39:41;;;;;;;8.73;3.77;;;-1.30;1.00;;;;;;4915841;28;37919;-81
2024/01/08 19:42:07;;;;;;;7.57;4.10;;;-1.30;1.00;;;;;;4908658;29;40466;-81
2024/01/08 19:44:34;;;;;;;7.93;4.07;;;-1.30;1.00;;;;;;4924648;29;37627;-81
2024/01/08 19:47:02;;;;;;;8.90;4.10;;;-1.40;1.00;;;;;;4918123;29;37266;-80
2024/01/08 19:49:31;;;;;;;6.87;3.87;;;-1.40;1.00;;;;;;4915089;29;50277;-80
2024/01/08 19:51:57;;;;;;;8.13;4.03;;;-1.40;1.00;;;;;;4912050;29;39883;-80
2024/01/08 19:54:24;;;;;;;6.53;3.60;;;-1.30;1.00;;;;;;4906766;29;36843;-81
2024/01/08 19:56:50;;;;;;;8.20;4.03;;;-1.40;1.00;;;;;;4907435;29;36219;-81
2024/01/08 19:59:24;;;;;;;9.20;4.27;;;-1.40;1.00;;;;;;4918272;29;38848;-81
2024/01/08 20:02:03;;;;;;;7.13;4.10;;;-1.40;1.00;;;;;;4914550;29;37753;-81
2024/01/08 20:04:29;;;;;;;11.77;4.33;;;-1.50;1.00;;;;;;4913641;29;46923;-79
2024/01/08 20:06:57;;;;;;;9.90;4.27;;;-1.50;1.00;;;;;;4917661;29;35994;-81
2024/01/08 20:09:24;;;;;;;6.90;3.80;;;-1.50;1.00;;;;;;4920266;29;39176;-80
2024/01/08 20:11:51;;;;;;;9.17;4.27;;;-1.50;1.00;;;;;;4916676;29;37263;-80
2024/01/08 20:14:17;;;;;;;10.60;4.77;;;-1.50;1.00;;;;;;4917978;29;36372;-80
2024/01/08 20:16:43;;;;;;;8.90;4.53;;;-1.60;1.00;;;;;;4913084;29;38285;-80
2024/01/08 20:19:16;;;;;;;7.37;4.00;;;-1.60;1.00;;;;;;4917678;28;38913;-81
2024/01/08 20:21:47;;;;;;;11.13;4.23;;;-1.50;1.00;;;;;;4920023;29;38397;-82
2024/01/08 20:24:26;;;;;;;9.47;4.23;;;-1.50;1.00;;;;;;4934878;29;37418;-81
2024/01/08 20:26:52;;;;;;;9.10;4.77;;;-1.50;1.00;;;;;;4927862;28;36716;-81
2024/01/08 20:29:19;;;;;;;7.87;4.70;;;-1.50;1.00;;;;;;4924539;29;42116;-81
2024/01/08 20:31:46;;;;;;;9.87;4.57;;;-1.60;1.00;;;;;;4915060;29;38573;-81
2024/01/08 20:34:20;;;;;;;8.83;4.30;;;-1.60;1.00;;;;;;4917629;28;36870;-81
2024/01/08 20:36:46;;;;;;;8.50;4.43;;;-1.60;1.00;;;;;;4911479;29;37435;-80
2024/01/08 20:39:12;;;;;;;11.43;4.57;;;-1.60;1.00;;;;;;4911775;29;39619;-80
2024/01/08 20:41:40;;;;;;;6.23;4.20;;;-1.60;1.00;;;;;;4914203;29;37273;-80
2024/01/08 20:44:06;;;;;;;8.63;4.93;;;-1.60;1.00;;;;;;4913738;29;38017;-82
2024/01/08 20:46:34;;;;;;;6.20;3.80;;;-1.70;1.00;;;;;;4917749;29;37513;-81
2024/01/08 20:49:02;;;;;;;6.63;4.23;;;-1.60;1.00;;;;;;4917764;29;39044;-82
2024/01/08 20:51:38;;;;;;;8.57;4.30;;;-1.60;1.00;;;;;;4914662;29;48405;-81
2024/01/08 20:54:07;;;;;;;8.80;4.43;;;-1.70;1.00;;;;;;4916468;29;37848;-81
2024/01/08 20:57:02;;;;;;;8.67;3.83;;;-1.70;1.00;;;;;;4916804;29;37011;-79
2024/01/08 20:59:35;;;;;;;6.70;3.90;;;-1.70;1.00;;;;;;4890596;29;48365;-82
2024/01/08 21:02:05;;;;;;;9.55;4.32;;;-1.70;1.00;;;;;;4918893;29;38930;-82
2024/01/08 21:04:45;;;;;;;6.33;3.90;;;-1.70;1.00;;;;;;4919312;28;49494;-82
2024/01/08 21:07:11;;;;;;;9.63;4.73;;;-1.70;1.00;;;;;;4918995;29;36838;-82
2024/01/08 21:09:51;;;;;;;9.27;4.67;;;-1.70;1.00;;;;;;4920590;29;39882;-82
2024/01/08 21:12:19;;;;;;;8.00;3.97;;;-1.60;1.00;;;;;;4918728;29;38274;-81
2024/01/08 21:20:13;;;;;;;6.37;3.70;;;-1.80;1.00;;;;;;5320788;23;20044;-85
2024/01/08 21:26:18;;;;;;;8.43;4.37;;;-1.80;1.00;;;;;;5256062;23;20041;-82
2024/01/08 21:29:46;;;;;;;8.73;4.60;;;-1.80;1.00;;;;;;4895362;29;50149;-82
2024/01/08 21:32:24;;;;;;;10.10;4.00;;;-1.80;1.00;;;;;;4826333;29;48868;-83
2024/01/08 21:35:07;;;;;;;7.63;4.40;;;-1.80;1.00;;;;;;4845753;29;38672;-81
2024/01/08 21:38:00;;;;;;;8.03;3.70;;;-1.80;1.00;;;;;;4902838;28;48726;-83
2024/01/08 21:40:55;;;;;;;7.27;4.27;;;-1.80;1.00;;;;;;4925950;23;36526;-84
2024/01/08 21:43:39;;;;;;;7.27;4.10;;;-1.90;1.00;;;;;;4911022;28;48142;-81
2024/01/08 21:46:26;;;;;;;7.93;4.30;;;-1.90;1.00;;;;;;4878801;29;38571;-83
2024/01/08 21:49:02;;;;;;;6.33;3.77;;;-1.80;1.00;;;;;;4849709;29;50104;-83
2024/01/08 21:51:48;;;;;;;7.10;4.03;;;-1.80;1.00;;;;;;4836876;29;49942;-83
2024/01/08 21:54:41;;;;;;;8.47;4.13;;;-1.80;1.00;;;;;;4829170;29;39314;-83
2024/01/08 21:57:50;;;;;;;5.73;3.63;;;-1.80;1.00;;;;;;4821637;29;39678;-84
2024/01/08 22:04:23;;;;;;;9.13;4.57;;;-1.90;1.00;;;;;;5717002;23;20037;-81
